This is the latest recevied weather packets stored in our database for station/object KC1OEK-13. If no packets are shown the sender has not sent any weather packets the latest 10 day(s).
| Time | Temp. | Humidity | Pressure | Rain* | Wind** | Luminosity | Snow |
|---|---|---|---|---|---|---|---|
| 1777690091 | 10.56° C | 69% | 1013.5 hPa | 0 mm | - | 0 W/m² | - |
| 1777689788 | 11.11° C | 68% | 1013.5 hPa | 0 mm | - | 0 W/m² | - |
| 1777689486 | 10.56° C | 69% | 1013.5 hPa | 0 mm | - | 0 W/m² | - |
| 1777689184 | 10.56° C | 71% | 1013.6 hPa | 0 mm | - | 0 W/m² | - |
| 1777688881 | 10.56° C | 69% | 1013.5 hPa | 0 mm | - | 0 W/m² | - |
| 1777687669 | 11.11° C | 67% | 1013.5 hPa | 0 mm | - | 0 W/m² | - |
| 1777674336 | 16.67° C | 37% | 1011.4 hPa | 0 mm | - | 44 W/m² | - |
| 1777674033 | 16.67° C | 36% | 1011.5 hPa | 0 mm | - | 86 W/m² | - |
| 1777673729 | 17.22° C | 37% | 1011.5 hPa | 0 mm | - | 142 W/m² | - |
| 1777673427 | 17.22° C | 38% | 1011.4 hPa | 0 mm | - | 157 W/m² | - |
| 1777673125 | 17.78° C | 38% | 1011.4 hPa | 0 mm | - | 173 W/m² | - |
| 1777671909 | 16.11° C | 37% | 1011.4 hPa | 0 mm | - | 246 W/m² | - |
| 1777664629 | 16.67° C | 35% | 1011.6 hPa | 0 mm | - | 589 W/m² | - |
| 1777664024 | 16.67° C | 39% | 1011.7 hPa | 0 mm | - | 613 W/m² | - |
| 1777663721 | 17.22° C | 39% | 1011.6 hPa | 0 mm | - | 643 W/m² | - |
| 1777662812 | 16.67° C | 37% | 1011.8 hPa | 0 mm | - | 744 W/m² | - |
| 1777661292 | 16.67° C | 39% | 1011.9 hPa | 0 mm | - | 393 W/m² | - |
| 1777660684 | 15.56° C | 37% | 1012.5 hPa | 0 mm | - | 191 W/m² | - |
| 1777660381 | 15.56° C | 39% | 1012.1 hPa | 0 mm | - | 771 W/m² | - |
| 1777660072 | 15.56° C | 39% | 1012.3 hPa | 0 mm | - | 758 W/m² | - |
| 1777659769 | 15° C | 38% | 1012.3 hPa | 0 mm | - | 805 W/m² | - |
| 1777659465 | 15.56° C | 40% | 1012.2 hPa | 0 mm | - | 839 W/m² | - |
| 1777658861 | 15.56° C | 38% | 1012.4 hPa | 0 mm | - | 774 W/m² | - |
| 1777657951 | 15° C | 38% | 1012.4 hPa | 0 mm | - | 821 W/m² | - |
| 1777657647 | 15° C | 39% | 1012.3 hPa | 0 mm | - | 216 W/m² | - |
* Rain latest hour (hover to see other rain measurements)
** Current wind speed in m/s (hover to see current wind gust speed)